Time;durP1;ratioP1;P1;durP2;ratioP2;P2;SDS_P1;SDS_P2;PMS_P1;PMS_P2;Temp;Humidity;BMP_temperature;BMP_pressure;BME280_temperature;BME280_humidity;BME280_pressure;Samples;Min_cycle;Max_cycle;Signal;HPM_P1;HPM_P2
2023/05/07 00:01:43;;;;;;;8.57;5.65;;;15.20;99.90;;;;;;5106752;27;20041;-57
2023/05/07 00:04:09;;;;;;;8.55;5.75;;;15.30;99.90;;;;;;5108499;27;20058;-57
2023/05/07 00:06:35;;;;;;;7.53;5.90;;;15.20;99.90;;;;;;5109047;27;20035;-57
2023/05/07 00:09:01;;;;;;;8.88;5.50;;;15.20;99.90;;;;;;5118798;27;20112;-58
2023/05/07 00:11:27;;;;;;;7.15;5.90;;;15.20;99.90;;;;;;5112540;27;20609;-58
2023/05/07 00:13:53;;;;;;;6.63;5.68;;;15.20;99.90;;;;;;5116420;27;20039;-57
2023/05/07 00:16:19;;;;;;;8.70;5.88;;;15.20;99.90;;;;;;5103790;27;20046;-57
2023/05/07 00:18:45;;;;;;;6.85;5.80;;;15.20;99.90;;;;;;5114153;27;20054;-57
2023/05/07 00:21:10;;;;;;;7.82;5.80;;;15.10;99.90;;;;;;5112796;27;20063;-57
2023/05/07 00:23:36;;;;;;;7.78;5.70;;;15.10;99.90;;;;;;5105273;27;20078;-58
2023/05/07 00:26:02;;;;;;;9.55;5.13;;;15.20;99.90;;;;;;5106142;27;20384;-56
2023/05/07 00:28:28;;;;;;;7.05;5.60;;;15.20;99.90;;;;;;5111190;27;20277;-57
2023/05/07 00:30:53;;;;;;;6.28;5.60;;;15.20;99.90;;;;;;5104075;27;20035;-57
2023/05/07 00:33:20;;;;;;;8.30;5.82;;;15.20;99.90;;;;;;5104140;27;20054;-57
2023/05/07 00:35:46;;;;;;;7.22;5.50;;;15.20;99.90;;;;;;5103648;27;20067;-57
2023/05/07 00:38:12;;;;;;;7.78;5.35;;;15.10;99.90;;;;;;5104873;27;20057;-57
2023/05/07 00:40:38;;;;;;;7.78;5.70;;;15.00;99.90;;;;;;5115178;27;20035;-57
2023/05/07 00:43:03;;;;;;;10.23;5.60;;;14.90;99.90;;;;;;5110254;27;20416;-57
2023/05/07 00:45:29;;;;;;;9.13;5.30;;;14.90;99.90;;;;;;5108418;27;20093;-57
2023/05/07 00:48:01;;;;;;;7.10;5.47;;;15.00;99.90;;;;;;5109293;27;20659;-57
2023/05/07 00:50:30;;;;;;;6.05;5.45;;;14.90;99.90;;;;;;5112246;27;20047;-58
2023/05/07 00:52:56;;;;;;;7.93;5.95;;;14.80;99.90;;;;;;5109973;27;20031;-57
2023/05/07 00:55:23;;;;;;;8.35;5.60;;;14.90;99.90;;;;;;5104429;27;20035;-57
2023/05/07 00:57:50;;;;;;;8.52;5.70;;;15.00;99.90;;;;;;5103890;27;20506;-57
2023/05/07 01:00:16;;;;;;;7.65;5.57;;;15.00;99.90;;;;;;5089242;27;20036;-57
2023/05/07 01:02:42;;;;;;;7.55;5.43;;;14.90;99.90;;;;;;5085059;28;20028;-57
2023/05/07 01:05:11;;;;;;;9.63;5.55;;;14.80;99.90;;;;;;5086483;27;20207;-57
2023/05/07 01:07:38;;;;;;;9.85;5.70;;;14.70;99.90;;;;;;5101761;27;20039;-58
2023/05/07 01:10:06;;;;;;;7.68;5.38;;;14.80;99.90;;;;;;5100830;27;20122;-57
2023/05/07 01:12:32;;;;;;;7.53;5.53;;;14.70;99.90;;;;;;5105348;27;20059;-57
2023/05/07 01:14:58;;;;;;;7.50;5.03;;;14.70;99.90;;;;;;5105640;27;20144;-58
2023/05/07 01:17:24;;;;;;;8.43;5.25;;;14.60;99.90;;;;;;5100516;27;20072;-57
2023/05/07 01:19:50;;;;;;;6.60;5.55;;;14.60;99.90;;;;;;5102844;27;20444;-58
2023/05/07 01:22:21;;;;;;;9.02;5.90;;;14.60;99.90;;;;;;5107780;27;20097;-57
2023/05/07 01:24:47;;;;;;;8.77;5.68;;;14.60;99.90;;;;;;5078237;27;20031;-57
2023/05/07 01:27:12;;;;;;;7.43;6.03;;;14.60;99.90;;;;;;5098075;28;20044;-57
2023/05/07 01:29:38;;;;;;;10.02;6.18;;;14.70;99.90;;;;;;5107395;27;20163;-57
2023/05/07 01:32:05;;;;;;;7.65;5.43;;;14.60;99.90;;;;;;5103358;27;20104;-57
2023/05/07 01:34:34;;;;;;;10.02;5.68;;;14.60;99.90;;;;;;5089147;28;20038;-57
2023/05/07 01:37:00;;;;;;;8.43;5.35;;;14.60;99.90;;;;;;5098890;27;20040;-57
2023/05/07 01:39:28;;;;;;;6.45;5.22;;;14.50;99.90;;;;;;5102514;27;20506;-57
2023/05/07 01:41:56;;;;;;;7.72;5.97;;;14.40;99.90;;;;;;5101629;27;20031;-57
2023/05/07 01:44:23;;;;;;;8.40;5.55;;;14.40;99.90;;;;;;5098975;28;20370;-57
2023/05/07 01:46:49;;;;;;;7.38;5.43;;;14.40;99.90;;;;;;5099199;27;20471;-57
2023/05/07 01:49:16;;;;;;;7.80;5.25;;;14.40;99.90;;;;;;5109667;27;20654;-57
2023/05/07 01:51:43;;;;;;;6.10;5.50;;;14.30;99.90;;;;;;5096906;27;20066;-57
2023/05/07 01:54:08;;;;;;;7.47;5.70;;;14.30;99.90;;;;;;5085873;27;20023;-56
2023/05/07 01:56:34;;;;;;;7.28;5.97;;;14.30;99.90;;;;;;5101370;27;20046;-58
2023/05/07 01:59:00;;;;;;;11.60;5.95;;;14.50;99.90;;;;;;5098794;28;20206;-57
2023/05/07 02:01:26;;;;;;;6.82;6.00;;;14.50;99.90;;;;;;5099412;27;20763;-57
2023/05/07 02:03:51;;;;;;;12.18;5.88;;;14.50;99.90;;;;;;5102163;27;20032;-58
2023/05/07 02:06:17;;;;;;;12.55;6.60;;;14.40;99.90;;;;;;5079867;28;20618;-57
2023/05/07 02:08:43;;;;;;;10.13;6.55;;;14.40;99.90;;;;;;5107987;27;20035;-57
2023/05/07 02:11:08;;;;;;;8.63;6.10;;;14.40;99.90;;;;;;5112277;27;20392;-57
2023/05/07 02:13:34;;;;;;;9.80;6.40;;;14.50;99.90;;;;;;5109513;27;20309;-57
2023/05/07 02:16:00;;;;;;;7.72;5.97;;;14.50;99.90;;;;;;5101476;27;20689;-57
2023/05/07 02:18:26;;;;;;;10.25;6.05;;;14.40;99.90;;;;;;5102042;27;20651;-57
2023/05/07 02:20:52;;;;;;;7.60;6.15;;;14.40;99.90;;;;;;5114074;27;20031;-57
2023/05/07 02:23:17;;;;;;;7.03;6.10;;;14.40;99.90;;;;;;5101330;27;20054;-57
2023/05/07 02:25:43;;;;;;;6.60;5.97;;;14.40;99.90;;;;;;5094801;27;20027;-57
2023/05/07 02:28:09;;;;;;;9.15;6.13;;;14.40;99.90;;;;;;5114420;27;20032;-56
2023/05/07 02:30:36;;;;;;;7.63;6.18;;;14.30;99.90;;;;;;5099952;27;20043;-57
2023/05/07 02:33:02;;;;;;;7.85;6.43;;;14.40;99.90;;;;;;5103127;27;20039;-56
2023/05/07 02:35:27;;;;;;;8.02;6.32;;;14.30;99.90;;;;;;5107853;27;20031;-57
2023/05/07 02:37:53;;;;;;;7.80;6.35;;;14.30;99.90;;;;;;5101429;27;20406;-57
2023/05/07 02:40:18;;;;;;;10.52;5.97;;;14.30;99.90;;;;;;5099221;27;20559;-57
2023/05/07 02:42:44;;;;;;;7.10;6.18;;;14.20;99.90;;;;;;5102087;27;20043;-57
2023/05/07 02:45:10;;;;;;;10.77;7.07;;;14.20;99.90;;;;;;5097531;28;20402;-57
2023/05/07 02:47:36;;;;;;;7.63;6.78;;;14.00;99.90;;;;;;5099366;27;20051;-57
2023/05/07 02:50:02;;;;;;;8.68;6.93;;;14.00;99.90;;;;;;5109221;27;20039;-57
2023/05/07 02:52:27;;;;;;;7.35;6.40;;;13.90;99.90;;;;;;5107450;27;20119;-57
2023/05/07 02:54:53;;;;;;;8.05;6.30;;;13.90;99.90;;;;;;5102691;27;20114;-57
2023/05/07 02:57:18;;;;;;;8.40;6.30;;;13.90;99.90;;;;;;5108739;27;20147;-57
2023/05/07 02:59:44;;;;;;;7.13;6.40;;;14.00;99.90;;;;;;5099291;27;20120;-57
2023/05/07 03:02:10;;;;;;;9.43;6.00;;;14.10;99.90;;;;;;5100554;27;20118;-57
2023/05/07 03:04:35;;;;;;;9.00;6.20;;;14.10;99.90;;;;;;5101334;27;20032;-57
2023/05/07 03:07:01;;;;;;;9.43;5.93;;;14.00;99.90;;;;;;5105987;27;20059;-57
2023/05/07 03:09:27;;;;;;;6.97;6.28;;;14.00;99.90;;;;;;5109995;27;20023;-57
2023/05/07 03:11:52;;;;;;;6.85;5.97;;;14.00;99.90;;;;;;5101478;27;20036;-57
2023/05/07 03:14:18;;;;;;;7.03;5.97;;;13.90;99.90;;;;;;5097300;27;20826;-57
2023/05/07 03:16:43;;;;;;;6.75;5.90;;;13.80;99.90;;;;;;5101695;27;20509;-57
2023/05/07 03:19:09;;;;;;;7.30;5.60;;;13.70;99.90;;;;;;5098521;27;20339;-57
2023/05/07 03:21:34;;;;;;;6.60;5.78;;;13.80;99.90;;;;;;5108024;27;20146;-57
2023/05/07 03:24:00;;;;;;;6.65;5.90;;;13.70;99.90;;;;;;5092086;27;20131;-57
2023/05/07 03:26:26;;;;;;;7.78;5.95;;;13.90;99.90;;;;;;5109666;27;20043;-57
2023/05/07 03:28:52;;;;;;;10.18;6.63;;;14.00;99.90;;;;;;5097134;28;20044;-57
2023/05/07 03:31:18;;;;;;;7.90;6.13;;;13.90;99.90;;;;;;5098974;27;20073;-57
2023/05/07 03:33:57;;;;;;;6.65;6.05;;;13.90;99.90;;;;;;5104198;27;20452;-58
2023/05/07 03:36:23;;;;;;;8.18;6.22;;;13.90;99.90;;;;;;5104239;27;20534;-57
2023/05/07 03:38:49;;;;;;;8.98;6.45;;;14.00;99.90;;;;;;5109465;27;20035;-57
2023/05/07 03:41:15;;;;;;;8.60;6.15;;;14.00;99.90;;;;;;5096803;27;20467;-57
2023/05/07 03:43:41;;;;;;;10.38;6.25;;;14.00;99.90;;;;;;5097907;27;20135;-57
2023/05/07 03:46:07;;;;;;;7.47;6.15;;;14.00;99.90;;;;;;5097072;28;20039;-57
2023/05/07 03:48:32;;;;;;;7.78;5.90;;;13.90;99.90;;;;;;5102940;27;20497;-57
2023/05/07 03:50:58;;;;;;;10.32;5.70;;;13.90;99.90;;;;;;5101461;27;20036;-57
2023/05/07 03:53:24;;;;;;;6.90;5.88;;;13.80;99.90;;;;;;5102734;28;20142;-57
2023/05/07 03:55:50;;;;;;;7.10;5.55;;;13.90;99.90;;;;;;5110536;28;20036;-57
2023/05/07 03:58:15;;;;;;;8.55;5.93;;;13.90;99.90;;;;;;5095226;28;20059;-58
2023/05/07 04:00:41;;;;;;;8.32;5.93;;;13.90;99.90;;;;;;5106523;27;20066;-57
2023/05/07 04:03:07;;;;;;;11.18;6.35;;;13.90;99.90;;;;;;5104587;28;20116;-56
2023/05/07 04:05:32;;;;;;;7.57;5.90;;;13.90;99.90;;;;;;5095347;28;20397;-57
2023/05/07 04:07:59;;;;;;;9.25;6.28;;;14.00;99.90;;;;;;5096239;28;20484;-57
2023/05/07 04:10:25;;;;;;;8.07;6.10;;;14.00;99.90;;;;;;5091376;28;20047;-57
2023/05/07 04:12:50;;;;;;;11.18;5.75;;;14.00;99.90;;;;;;5097251;28;20031;-57
2023/05/07 04:15:16;;;;;;;11.30;6.13;;;13.90;99.90;;;;;;5101433;28;20127;-57
2023/05/07 04:17:42;;;;;;;7.18;5.60;;;13.90;99.90;;;;;;5097228;28;20046;-57
2023/05/07 04:20:14;;;;;;;7.72;5.82;;;13.90;99.90;;;;;;5096249;28;20027;-58
2023/05/07 04:22:40;;;;;;;9.23;5.97;;;13.80;99.90;;;;;;5092827;28;20078;-58
2023/05/07 04:25:07;;;;;;;6.88;5.38;;;13.90;99.90;;;;;;5094887;28;20135;-58
2023/05/07 04:27:33;;;;;;;8.68;6.05;;;13.80;99.90;;;;;;5100143;28;20054;-57
2023/05/07 04:30:00;;;;;;;7.40;5.82;;;13.90;99.90;;;;;;5098706;28;20146;-57
2023/05/07 04:32:26;;;;;;;10.32;6.18;;;13.80;99.90;;;;;;5099490;28;20499;-57
2023/05/07 04:34:52;;;;;;;8.43;6.10;;;13.80;99.90;;;;;;5099574;28;20035;-57
2023/05/07 04:37:17;;;;;;;8.02;6.45;;;13.80;99.90;;;;;;5095680;27;20036;-57
2023/05/07 04:39:43;;;;;;;7.22;6.07;;;13.80;99.90;;;;;;5103838;27;20034;-57
2023/05/07 04:42:08;;;;;;;8.02;6.25;;;13.90;99.90;;;;;;5102151;27;20036;-58
2023/05/07 04:44:34;;;;;;;9.93;5.60;;;13.90;99.90;;;;;;5105105;27;20104;-57
2023/05/07 04:47:00;;;;;;;8.20;6.20;;;13.90;99.90;;;;;;5098044;27;20035;-57
2023/05/07 04:49:26;;;;;;;9.25;5.65;;;13.90;99.90;;;;;;5097944;28;20027;-57
2023/05/07 04:51:52;;;;;;;6.65;5.65;;;13.90;99.90;;;;;;5102495;27;20080;-57
2023/05/07 04:54:17;;;;;;;9.73;6.75;;;14.00;99.90;;;;;;5081908;28;20569;-57
2023/05/07 04:56:43;;;;;;;7.60;6.10;;;14.00;99.90;;;;;;5103940;27;20027;-57
2023/05/07 04:59:08;;;;;;;7.32;6.07;;;14.00;99.90;;;;;;5098509;27;20394;-57
2023/05/07 05:01:34;;;;;;;6.00;5.47;;;14.10;99.90;;;;;;5101057;27;20460;-57
2023/05/07 05:04:00;;;;;;;7.60;5.88;;;14.20;99.90;;;;;;5112146;27;20049;-57
2023/05/07 05:06:25;;;;;;;8.73;6.22;;;14.20;99.90;;;;;;5097590;28;20036;-58
2023/05/07 05:08:51;;;;;;;11.13;6.18;;;14.40;99.90;;;;;;5102791;27;20086;-57
2023/05/07 05:11:17;;;;;;;7.40;5.53;;;14.40;99.90;;;;;;5100699;27;20050;-57
2023/05/07 05:13:42;;;;;;;8.73;5.53;;;14.50;99.90;;;;;;5084358;27;20391;-57
2023/05/07 05:16:08;;;;;;;8.43;5.18;;;14.50;99.90;;;;;;5107280;27;20027;-56
2023/05/07 05:18:33;;;;;;;5.95;5.30;;;14.50;99.90;;;;;;5105648;27;20054;-57
2023/05/07 05:20:59;;;;;;;6.93;4.78;;;14.70;99.90;;;;;;5100954;27;20042;-56
2023/05/07 05:23:24;;;;;;;5.28;4.78;;;14.70;99.90;;;;;;5106560;27;20528;-56
2023/05/07 05:25:54;;;;;;;9.60;5.15;;;14.90;99.90;;;;;;5104161;27;20031;-56
2023/05/07 05:28:20;;;;;;;8.65;5.35;;;14.80;99.90;;;;;;5097629;28;20046;-56
2023/05/07 05:30:45;;;;;;;5.70;4.65;;;14.90;99.90;;;;;;5096104;27;20032;-56
2023/05/07 05:33:11;;;;;;;7.65;4.18;;;15.20;99.90;;;;;;5085659;28;20059;-56
2023/05/07 05:35:37;;;;;;;6.30;4.40;;;15.00;99.90;;;;;;5108266;27;20566;-56
2023/05/07 05:38:02;;;;;;;7.05;3.92;;;15.00;99.90;;;;;;5100255;28;20699;-56
2023/05/07 05:40:28;;;;;;;6.25;4.55;;;15.20;99.90;;;;;;5100863;27;20038;-56
2023/05/07 05:42:54;;;;;;;7.88;3.90;;;15.20;99.90;;;;;;5105143;27;20639;-56
2023/05/07 05:45:19;;;;;;;8.45;3.70;;;15.40;99.90;;;;;;5103611;27;20478;-56
2023/05/07 05:47:45;;;;;;;7.85;3.90;;;15.50;99.90;;;;;;5100517;27;20043;-57
2023/05/07 05:50:11;;;;;;;4.47;3.33;;;15.60;99.90;;;;;;5100490;27;20637;-56
2023/05/07 05:52:36;;;;;;;5.07;3.55;;;15.70;99.90;;;;;;5104571;27;20035;-56
2023/05/07 05:55:02;;;;;;;7.43;3.10;;;15.80;99.90;;;;;;5099940;28;21043;-55
2023/05/07 05:57:28;;;;;;;4.55;3.22;;;15.90;99.90;;;;;;5099053;27;20635;-56
2023/05/07 05:59:54;;;;;;;6.15;3.00;;;15.90;99.90;;;;;;5099839;27;20096;-57
2023/05/07 06:02:19;;;;;;;7.38;3.15;;;16.00;99.90;;;;;;5104700;27;20458;-57
2023/05/07 06:04:45;;;;;;;3.17;2.80;;;16.00;99.90;;;;;;5089953;27;20436;-57
2023/05/07 06:07:11;;;;;;;4.55;2.90;;;16.00;99.90;;;;;;5100829;27;20170;-56
2023/05/07 06:09:36;;;;;;;4.30;2.88;;;16.10;99.90;;;;;;5100937;28;20096;-56
2023/05/07 06:12:02;;;;;;;4.22;2.70;;;16.10;99.90;;;;;;5104017;27;20023;-56
2023/05/07 06:14:28;;;;;;;2.88;2.33;;;16.00;99.90;;;;;;5098698;27;20031;-57
2023/05/07 06:16:53;;;;;;;6.28;2.60;;;16.10;99.90;;;;;;5110368;27;20724;-57
2023/05/07 06:19:22;;;;;;;8.07;2.95;;;16.10;99.90;;;;;;5108069;27;20838;-56
2023/05/07 06:21:48;;;;;;;4.13;2.70;;;16.10;99.90;;;;;;5109887;27;20019;-56
2023/05/07 06:24:14;;;;;;;6.05;2.38;;;16.20;99.90;;;;;;5108288;27;20126;-56
2023/05/07 06:26:40;;;;;;;4.88;2.30;;;16.00;99.90;;;;;;5105100;27;20331;-56
2023/05/07 06:29:06;;;;;;;3.08;2.40;;;16.10;99.90;;;;;;5103515;27;20035;-56
2023/05/07 06:31:31;;;;;;;5.03;3.00;;;16.10;99.90;;;;;;5106500;27;20042;-56
2023/05/07 06:33:58;;;;;;;6.30;2.78;;;16.10;99.90;;;;;;5108120;27;20070;-57
2023/05/07 06:36:24;;;;;;;3.42;2.40;;;16.20;99.90;;;;;;5104018;27;20044;-56
2023/05/07 06:38:49;;;;;;;5.90;2.28;;;16.20;99.90;;;;;;5110188;27;20041;-56
2023/05/07 06:41:15;;;;;;;5.10;2.38;;;16.30;99.90;;;;;;5107536;27;20051;-56
2023/05/07 06:43:40;;;;;;;3.45;2.28;;;16.30;99.90;;;;;;5108342;27;20118;-56
2023/05/07 06:46:06;;;;;;;4.28;2.00;;;16.20;99.90;;;;;;5104268;27;20035;-57
2023/05/07 06:48:32;;;;;;;2.85;2.47;;;16.30;99.90;;;;;;5083281;27;20035;-56
2023/05/07 06:50:57;;;;;;;3.72;2.15;;;16.30;99.90;;;;;;5105468;27;20059;-57
2023/05/07 06:53:24;;;;;;;3.03;2.10;;;16.40;99.90;;;;;;5106860;27;20051;-56
2023/05/07 06:55:49;;;;;;;6.15;2.28;;;16.40;99.90;;;;;;5097659;27;20038;-57
2023/05/07 06:58:15;;;;;;;4.07;2.20;;;16.50;99.90;;;;;;5087916;27;20036;-57
2023/05/07 07:00:40;;;;;;;3.95;2.30;;;16.50;99.90;;;;;;5103972;27;20171;-57
2023/05/07 07:03:06;;;;;;;3.00;2.28;;;16.60;99.90;;;;;;5103718;27;20134;-57
2023/05/07 07:05:32;;;;;;;4.28;2.42;;;16.60;99.90;;;;;;5101898;27;20036;-57
2023/05/07 07:07:58;;;;;;;5.68;2.42;;;16.60;99.90;;;;;;5098764;28;20039;-57
2023/05/07 07:10:24;;;;;;;5.15;2.20;;;16.80;99.90;;;;;;5096231;27;20055;-57
2023/05/07 07:12:50;;;;;;;4.72;2.08;;;16.80;99.90;;;;;;5101311;27;20039;-57
2023/05/07 07:15:16;;;;;;;4.90;2.45;;;16.90;99.90;;;;;;5102309;27;20579;-56
2023/05/07 07:17:42;;;;;;;5.22;3.90;;;17.00;99.90;;;;;;5099579;27;20110;-57
2023/05/07 07:20:08;;;;;;;2.50;2.05;;;16.90;99.90;;;;;;5103406;27;20123;-57
2023/05/07 07:22:34;;;;;;;4.38;2.42;;;17.00;99.90;;;;;;5096322;27;20100;-57
2023/05/07 07:25:00;;;;;;;3.30;2.20;;;17.10;99.90;;;;;;5103302;27;20618;-57
2023/05/07 07:27:25;;;;;;;6.32;2.47;;;17.10;99.90;;;;;;5102133;27;20066;-57
2023/05/07 07:29:51;;;;;;;4.35;2.42;;;17.20;99.90;;;;;;5109922;27;20032;-57
2023/05/07 07:32:16;;;;;;;6.72;2.63;;;17.10;99.90;;;;;;5097502;27;20385;-57
2023/05/07 07:34:42;;;;;;;4.00;2.45;;;17.20;99.90;;;;;;5102588;27;20507;-57
2023/05/07 07:37:08;;;;;;;5.93;2.42;;;17.20;99.90;;;;;;5108438;27;20027;-56
2023/05/07 07:39:33;;;;;;;5.80;2.70;;;17.30;99.90;;;;;;5100096;27;20115;-57
2023/05/07 07:41:59;;;;;;;3.08;2.50;;;17.40;99.90;;;;;;5072680;28;20028;-57
2023/05/07 07:44:25;;;;;;;3.30;2.60;;;17.40;99.90;;;;;;5099881;28;20072;-57
2023/05/07 07:46:51;;;;;;;3.15;2.50;;;17.40;99.90;;;;;;5100496;27;20130;-57
2023/05/07 07:49:17;;;;;;;3.20;2.70;;;17.50;99.90;;;;;;5113704;27;20039;-57
2023/05/07 07:51:42;;;;;;;3.80;2.50;;;17.70;99.90;;;;;;5113263;28;20599;-57
2023/05/07 07:54:08;;;;;;;3.85;2.50;;;15.80;99.90;;;;;;5097564;28;20127;-57
2023/05/07 07:56:34;;;;;;;4.03;2.55;;;17.90;99.90;;;;;;5103755;27;20032;-57
2023/05/07 07:59:00;;;;;;;6.88;2.95;;;18.00;99.90;;;;;;5098248;28;20036;-57
2023/05/07 08:01:26;;;;;;;3.80;2.70;;;17.90;99.90;;;;;;5098618;28;20058;-57
2023/05/07 08:03:51;;;;;;;3.60;2.25;;;18.00;99.90;;;;;;5102647;28;20028;-57
2023/05/07 08:06:17;;;;;;;5.70;2.80;;;18.10;99.90;;;;;;5094894;28;20101;-57
2023/05/07 08:08:43;;;;;;;3.33;2.65;;;17.20;99.90;;;;;;5098904;28;20406;-57
2023/05/07 08:11:09;;;;;;;4.82;3.00;;;18.40;99.90;;;;;;5110361;27;20070;-57
2023/05/07 08:13:35;;;;;;;5.30;2.40;;;18.40;99.90;;;;;;5095683;28;20508;-57
2023/05/07 08:16:01;;;;;;;5.15;2.78;;;18.30;99.90;;;;;;5104870;27;20058;-57
2023/05/07 08:18:28;;;;;;;3.97;2.80;;;18.30;99.90;;;;;;5110324;27;20080;-57
2023/05/07 08:20:54;;;;;;;5.43;2.70;;;18.20;99.90;;;;;;5107085;27;20514;-57
2023/05/07 08:23:20;;;;;;;4.95;2.90;;;18.30;99.90;;;;;;5115373;27;20147;-57
2023/05/07 08:25:46;;;;;;;4.15;2.95;;;18.50;99.90;;;;;;5102485;28;20028;-57
2023/05/07 08:28:11;;;;;;;4.20;2.80;;;18.60;99.90;;;;;;5099681;27;20032;-57
2023/05/07 08:30:37;;;;;;;3.33;2.33;;;18.60;99.90;;;;;;5105370;27;20035;-57
2023/05/07 08:33:03;;;;;;;3.78;2.72;;;18.70;99.90;;;;;;5105415;27;20032;-57
2023/05/07 08:35:28;;;;;;;3.78;2.25;;;18.80;99.90;;;;;;5100121;28;20626;-57
2023/05/07 08:37:54;;;;;;;4.35;2.40;;;18.90;99.90;;;;;;5103896;27;20040;-57
2023/05/07 08:40:24;;;;;;;4.47;2.53;;;19.10;99.90;;;;;;5099557;28;20114;-58
2023/05/07 08:42:52;;;;;;;5.20;2.63;;;19.30;99.90;;;;;;5101728;27;20031;-57
2023/05/07 08:45:20;;;;;;;3.70;2.83;;;19.40;99.90;;;;;;5110625;27;20039;-57
2023/05/07 08:47:54;;;;;;;6.68;2.97;;;19.60;99.90;;;;;;5102474;27;20024;-57
2023/05/07 08:50:21;;;;;;;6.03;3.75;;;19.60;99.90;;;;;;5109634;27;20135;-57
2023/05/07 08:52:49;;;;;;;8.73;2.80;;;;;;;;;;5111344;27;20128;-57
2023/05/07 08:55:15;;;;;;;7.32;4.55;;;19.70;99.90;;;;;;5110847;27;20031;-57
2023/05/07 08:57:40;;;;;;;3.42;2.38;;;19.90;99.90;;;;;;5099461;27;20095;-57
2023/05/07 09:00:07;;;;;;;4.15;2.65;;;20.00;99.90;;;;;;5093177;28;20375;-57
2023/05/07 09:02:34;;;;;;;5.00;2.28;;;20.00;99.90;;;;;;5105570;27;20432;-57
2023/05/07 09:05:00;;;;;;;8.20;2.47;;;20.00;99.90;;;;;;5089401;27;20039;-55
2023/05/07 09:07:26;;;;;;;4.75;2.90;;;19.90;99.90;;;;;;5088329;28;20035;-56
2023/05/07 09:09:52;;;;;;;5.07;2.95;;;19.90;99.90;;;;;;5094044;27;20035;-56
2023/05/07 09:12:18;;;;;;;5.35;2.85;;;20.00;99.90;;;;;;5106462;27;20195;-56
2023/05/07 09:14:45;;;;;;;5.47;2.67;;;20.10;99.90;;;;;;5113374;27;20597;-57
2023/05/07 09:17:11;;;;;;;4.10;2.63;;;20.20;99.90;;;;;;5094701;27;20444;-57
2023/05/07 09:19:37;;;;;;;7.57;2.95;;;20.10;99.90;;;;;;5107139;27;20055;-53
2023/05/07 09:22:03;;;;;;;7.13;2.58;;;20.10;99.90;;;;;;5087643;27;20044;-52
2023/05/07 09:24:33;;;;;;;4.63;2.90;;;20.20;99.90;;;;;;5098771;28;20032;-52
2023/05/07 09:27:01;;;;;;;3.97;2.50;;;20.20;99.90;;;;;;5104779;27;20035;-55
2023/05/07 09:29:28;;;;;;;6.03;3.20;;;20.20;99.90;;;;;;5099089;27;20053;-55
2023/05/07 09:31:54;;;;;;;6.97;3.00;;;20.30;99.90;;;;;;5106748;27;20328;-54
2023/05/07 09:34:20;;;;;;;6.38;2.60;;;20.30;99.90;;;;;;5104157;27;20044;-53
2023/05/07 09:36:46;;;;;;;8.05;2.72;;;20.30;99.90;;;;;;5099395;27;20040;-53
2023/05/07 09:39:12;;;;;;;4.00;2.22;;;20.30;99.90;;;;;;5097935;27;20027;-55
2023/05/07 09:41:49;;;;;;;3.33;2.10;;;20.20;99.90;;;;;;5118800;27;20027;-55
2023/05/07 09:44:15;;;;;;;4.97;2.95;;;20.40;99.90;;;;;;5117340;27;20088;-55
2023/05/07 09:46:44;;;;;;;8.00;3.30;;;20.60;99.90;;;;;;5112557;27;20036;-54
2023/05/07 09:49:20;;;;;;;6.22;2.92;;;20.80;99.90;;;;;;5106445;27;20054;-54
2023/05/07 09:51:49;;;;;;;5.78;2.85;;;20.60;99.90;;;;;;5096869;27;20564;-55
2023/05/07 09:54:16;;;;;;;4.82;2.50;;;20.60;99.90;;;;;;5099576;27;20661;-54
2023/05/07 09:56:44;;;;;;;3.05;2.13;;;20.80;99.90;;;;;;5098031;27;20041;-55
2023/05/07 09:59:14;;;;;;;5.00;2.40;;;21.00;99.90;;;;;;5100110;27;20044;-54
2023/05/07 10:01:41;;;;;;;6.32;3.38;;;21.10;99.90;;;;;;5104383;27;20035;-55
2023/05/07 10:04:08;;;;;;;6.72;3.65;;;20.90;99.90;;;;;;5092611;27;20093;-55
2023/05/07 10:06:35;;;;;;;9.00;3.90;;;20.80;99.90;;;;;;5078697;27;20054;-54
2023/05/07 10:09:02;;;;;;;6.05;2.22;;;20.90;99.90;;;;;;5108744;27;20851;-55
2023/05/07 10:11:28;;;;;;;7.00;4.53;;;21.00;99.90;;;;;;5102704;27;20380;-55
2023/05/07 10:13:53;;;;;;;5.00;2.05;;;21.00;99.90;;;;;;5102167;27;20036;-54
2023/05/07 10:16:20;;;;;;;4.03;2.45;;;21.10;99.90;;;;;;5099652;27;20360;-55
2023/05/07 10:18:46;;;;;;;8.98;4.00;;;21.20;99.90;;;;;;5104429;27;20084;-55
2023/05/07 10:21:19;;;;;;;6.22;1.58;;;21.30;99.90;;;;;;5096596;27;20039;-55
2023/05/07 10:23:48;;;;;;;2.83;1.42;;;21.30;99.90;;;;;;5089654;27;20647;-54
2023/05/07 10:26:16;;;;;;;3.67;1.63;;;21.40;99.90;;;;;;5086932;27;20422;-55
2023/05/07 10:28:46;;;;;;;2.83;1.75;;;21.50;99.90;;;;;;5108228;27;20128;-54
2023/05/07 10:31:46;;;;;;;3.50;1.80;;;21.50;99.90;;;;;;5123605;27;20064;-55
2023/05/07 10:34:16;;;;;;;3.35;1.27;;;21.50;99.90;;;;;;5104872;27;20028;-53
2023/05/07 10:36:43;;;;;;;4.28;1.50;;;21.60;99.90;;;;;;5104157;27;20035;-55
2023/05/07 10:39:09;;;;;;;7.05;3.75;;;21.60;99.90;;;;;;5104231;27;20273;-57
2023/05/07 10:41:35;;;;;;;3.25;1.30;;;21.60;99.90;;;;;;5093183;27;20217;-57
2023/05/07 10:44:02;;;;;;;1.48;1.13;;;21.60;99.90;;;;;;5091053;27;20031;-55
2023/05/07 10:46:27;;;;;;;3.60;1.90;;;21.60;99.90;;;;;;5099789;27;21101;-57
2023/05/07 10:49:08;;;;;;;2.25;1.20;;;21.70;99.90;;;;;;5104752;27;20043;-56
2023/05/07 10:51:35;;;;;;;3.00;1.60;;;21.70;99.90;;;;;;5096625;27;20371;-56
2023/05/07 10:54:09;;;;;;;2.20;0.80;;;21.90;99.90;;;;;;5099885;27;20532;-56
2023/05/07 10:56:37;;;;;;;1.63;1.00;;;21.90;99.90;;;;;;5088938;27;20345;-54
2023/05/07 10:59:22;;;;;;;3.22;1.02;;;22.10;99.90;;;;;;5104163;27;20039;-52
2023/05/07 11:01:54;;;;;;;2.00;1.10;;;22.20;99.90;;;;;;5105068;27;20120;-53
2023/05/07 11:04:25;;;;;;;4.60;1.20;;;22.20;99.90;;;;;;5101323;27;20659;-54
2023/05/07 11:07:06;;;;;;;5.63;1.40;;;22.10;99.90;;;;;;5106313;27;20455;-54
2023/05/07 11:10:00;;;;;;;3.85;1.15;;;22.20;99.90;;;;;;5108517;27;20036;-53
2023/05/07 11:12:38;;;;;;;1.73;1.08;;;22.00;99.90;;;;;;5108361;27;20031;-53
2023/05/07 11:15:08;;;;;;;2.00;1.15;;;21.80;99.90;;;;;;5110162;27;20036;-53
2023/05/07 11:17:51;;;;;;;3.45;1.08;;;21.70;99.90;;;;;;5100029;27;20066;-62
2023/05/07 11:20:17;;;;;;;3.80;1.00;;;21.50;99.90;;;;;;5106726;27;20035;-61
2023/05/07 11:22:42;;;;;;;3.35;1.08;;;21.50;99.90;;;;;;5078766;27;20494;-61
2023/05/07 11:25:08;;;;;;;4.25;1.20;;;21.60;99.90;;;;;;5108275;27;20040;-61
2023/05/07 11:27:34;;;;;;;4.50;1.42;;;21.90;99.90;;;;;;5099598;27;20051;-61
2023/05/07 11:30:02;;;;;;;2.67;1.33;;;21.90;99.90;;;;;;5095739;27;20035;-54
2023/05/07 11:32:31;;;;;;;4.60;1.10;;;21.70;99.90;;;;;;5105920;27;20046;-55
2023/05/07 11:38:05;;;;;;;3.13;1.15;;;21.70;99.90;;;;;;5401565;22;20123;-56
2023/05/07 11:40:30;;;;;;;4.90;1.38;;;21.90;99.90;;;;;;5008681;28;20174;-57
2023/05/07 11:42:56;;;;;;;2.45;1.20;;;22.10;99.90;;;;;;5011955;28;20095;-57
2023/05/07 11:45:27;;;;;;;2.65;0.95;;;22.30;99.90;;;;;;5019169;28;20034;-57
2023/05/07 11:47:53;;;;;;;2.95;1.30;;;22.20;99.90;;;;;;5011739;28;20068;-57
2023/05/07 11:50:19;;;;;;;2.65;1.10;;;22.20;99.90;;;;;;5013342;28;20089;-57
2023/05/07 11:52:51;;;;;;;3.25;1.60;;;22.00;99.90;;;;;;5018099;28;20519;-57
2023/05/07 11:55:19;;;;;;;3.57;1.33;;;22.00;99.90;;;;;;5013377;28;20037;-57
2023/05/07 11:57:45;;;;;;;2.40;1.20;;;22.10;99.90;;;;;;5010636;28;20041;-57
2023/05/07 12:00:11;;;;;;;6.95;1.35;;;22.10;99.90;;;;;;5015128;28;20029;-62
2023/05/07 12:02:36;;;;;;;2.28;1.20;;;22.00;99.90;;;;;;5013625;28;20131;-63
2023/05/07 12:05:02;;;;;;;3.78;1.48;;;22.20;99.90;;;;;;5016010;28;20133;-62
2023/05/07 12:07:28;;;;;;;3.35;1.30;;;22.20;99.90;;;;;;5017176;28;20053;-63
2023/05/07 12:09:53;;;;;;;3.00;1.50;;;21.90;99.90;;;;;;5015989;28;20038;-63
2023/05/07 12:12:19;;;;;;;2.83;1.40;;;21.80;99.90;;;;;;5012072;28;20030;-63
2023/05/07 12:14:45;;;;;;;2.95;1.50;;;21.80;99.90;;;;;;4998280;28;20057;-62
2023/05/07 12:17:13;;;;;;;3.78;1.80;;;22.00;99.90;;;;;;5015760;28;20041;-62
2023/05/07 12:19:41;;;;;;;6.00;1.70;;;22.00;99.90;;;;;;5012704;28;20046;-62
2023/05/07 12:22:10;;;;;;;5.88;1.90;;;22.00;99.90;;;;;;5009173;28;20030;-61
2023/05/07 12:24:56;;;;;;;3.78;1.88;;;22.10;99.90;;;;;;5013662;28;20123;-63
2023/05/07 12:27:22;;;;;;;4.97;1.80;;;22.00;99.90;;;;;;5011324;28;20048;-62
2023/05/07 12:29:48;;;;;;;6.30;2.65;;;22.00;99.90;;;;;;5016693;28;20493;-62
2023/05/07 12:32:17;;;;;;;4.15;2.08;;;22.00;99.90;;;;;;5015682;28;20700;-62
2023/05/07 12:34:46;;;;;;;4.30;1.30;;;21.90;99.90;;;;;;5015303;28;20144;-62
2023/05/07 12:37:13;;;;;;;4.93;1.70;;;21.70;99.90;;;;;;5010333;28;20081;-66
2023/05/07 12:39:44;;;;;;;3.53;1.58;;;21.80;99.90;;;;;;4994622;28;20045;-66
2023/05/07 12:42:15;;;;;;;4.45;1.73;;;21.90;99.90;;;;;;4933773;28;20041;-66
2023/05/07 12:44:41;;;;;;;4.53;1.90;;;22.00;99.90;;;;;;4914520;28;21281;-66
2023/05/07 12:47:07;;;;;;;5.35;2.10;;;22.10;99.90;;;;;;4993161;28;20034;-66